createdAt,value
2018-09-28T00:00:50.607Z,75.97
2018-09-28T00:03:19.509Z,75.58
2018-09-28T00:05:48.381Z,76.61
2018-09-28T00:08:17.337Z,77.27
2018-09-28T00:10:46.205Z,77.32
2018-09-28T00:13:15.111Z,77.13
2018-09-28T00:15:43.980Z,77.18
2018-09-28T00:18:12.863Z,77.91
2018-09-28T00:20:41.763Z,77.82
2018-09-28T00:23:10.676Z,77.87
2018-09-28T00:25:39.522Z,78.67
2018-09-28T00:28:08.434Z,78.12
2018-09-28T00:30:37.287Z,78.63
2018-09-28T00:33:06.343Z,78.83
2018-09-28T00:35:35.250Z,78.33
2018-09-28T00:38:04.129Z,78.47
2018-09-28T00:40:33.029Z,78.48
2018-09-28T00:43:01.878Z,78.09
2018-09-28T00:45:30.869Z,78.35
2018-09-28T00:47:59.742Z,78.29
2018-09-28T00:50:28.663Z,77.88
2018-09-28T00:52:57.639Z,78.02
2018-09-28T00:55:27.139Z,77.74
2018-09-28T00:57:56.398Z,78.43
2018-09-28T01:00:25.319Z,78.22
2018-09-28T01:02:54.185Z,78.85
2018-09-28T01:05:23.113Z,78.74
2018-09-28T01:07:52.182Z,77.80
2018-09-28T01:10:21.372Z,78.91
2018-09-28T01:12:50.223Z,79.02
2018-09-28T01:15:19.141Z,78.97
2018-09-28T01:17:48.008Z,79.80
2018-09-28T01:20:17.252Z,79.69
2018-09-28T01:22:46.252Z,79.98
2018-09-28T01:25:15.453Z,80.67
2018-09-28T01:27:44.327Z,82.34
2018-09-28T01:30:13.228Z,81.66
2018-09-28T01:32:42.128Z,82.37
2018-09-28T01:35:11.056Z,83.67
2018-09-28T01:37:39.938Z,83.96
2018-09-28T01:40:08.802Z,83.97
2018-09-28T01:42:37.701Z,83.34
2018-09-28T01:45:08.468Z,83.44
2018-09-28T01:47:37.390Z,82.45
2018-09-28T01:50:06.252Z,82.78
2018-09-28T01:52:35.226Z,82.04
2018-09-28T01:55:04.921Z,81.42
2018-09-28T01:57:33.840Z,81.10
2018-09-28T02:00:02.777Z,80.99
2018-09-28T02:02:31.696Z,81.13
2018-09-28T02:05:00.866Z,80.96
2018-09-28T02:07:30.218Z,80.80
2018-09-28T02:09:59.058Z,80.86
2018-09-28T02:12:28.162Z,81.18
2018-09-28T02:14:57.278Z,81.42
2018-09-28T02:17:26.434Z,81.68
2018-09-28T02:19:55.290Z,81.88
2018-09-28T02:22:24.184Z,82.48
2018-09-28T02:24:53.110Z,85.71
2018-09-28T02:27:22.053Z,87.91
2018-09-28T02:29:50.978Z,89.64
2018-09-28T02:32:19.833Z,90.40
2018-09-28T02:34:48.709Z,90.05
2018-09-28T02:37:17.622Z,88.12
2018-09-28T02:39:46.523Z,88.94
2018-09-28T02:42:15.415Z,88.50
2018-09-28T02:44:44.359Z,88.43
2018-09-28T02:47:13.234Z,87.15
2018-09-28T02:49:42.228Z,86.51
2018-09-28T02:52:11.119Z,86.11
2018-09-28T02:54:39.993Z,85.95
2018-09-28T02:57:09.177Z,85.12
2018-09-28T02:59:38.085Z,85.14
2018-09-28T03:02:07.470Z,84.74
2018-09-28T03:04:36.382Z,85.02
2018-09-28T03:07:11.090Z,85.54
2018-09-28T03:09:46.015Z,85.42
2018-09-28T03:12:21.043Z,84.14
2018-09-28T03:14:50.194Z,84.36
2018-09-28T03:17:25.181Z,83.60
2018-09-28T03:20:00.039Z,83.07
2018-09-28T03:22:35.175Z,82.45
2018-09-28T03:25:04.239Z,82.23
2018-09-28T03:27:33.389Z,81.71
2018-09-28T03:30:02.305Z,81.71
2018-09-28T03:32:31.243Z,80.98
2018-09-28T03:35:00.129Z,80.89
2018-09-28T03:37:28.995Z,80.90
2018-09-28T03:39:57.910Z,80.01
2018-09-28T03:42:26.758Z,81.26
2018-09-28T03:44:55.662Z,80.51
2018-09-28T03:47:24.631Z,79.84
2018-09-28T03:49:53.475Z,79.17
2018-09-28T03:52:22.690Z,78.94
2018-09-28T03:54:53.148Z,77.40
2018-09-28T03:57:27.965Z,76.94
2018-09-28T04:00:02.947Z,76.97
2018-09-28T04:02:38.042Z,75.10
2018-09-28T04:05:12.894Z,74.96
2018-09-28T04:07:47.765Z,75.02
2018-09-28T04:10:22.521Z,74.85
2018-09-28T04:12:57.800Z,74.71
2018-09-28T04:15:26.657Z,74.40
2018-09-28T04:17:55.698Z,73.84
2018-09-28T04:20:24.595Z,73.20
2018-09-28T04:22:59.473Z,73.12
2018-09-28T04:25:34.439Z,72.76
2018-09-28T04:28:07.646Z,72.40
2018-09-28T04:30:36.486Z,72.58
2018-09-28T04:33:05.472Z,72.29
2018-09-28T04:35:34.713Z,72.21
2018-09-28T04:38:04.222Z,71.35
2018-09-28T04:40:33.269Z,71.27
2018-09-28T04:43:02.176Z,71.37
2018-09-28T04:45:31.087Z,71.74
2018-09-28T04:48:00.043Z,71.39
2018-09-28T04:50:28.949Z,71.57
2018-09-28T04:52:57.975Z,71.47
2018-09-28T04:55:26.830Z,72.34
2018-09-28T04:57:55.725Z,72.05
2018-09-28T05:00:24.586Z,71.85
2018-09-28T05:02:53.522Z,72.28
2018-09-28T05:05:22.504Z,72.13
2018-09-28T05:07:51.400Z,71.86
2018-09-28T05:10:26.263Z,72.34
2018-09-28T05:13:01.019Z,72.14
2018-09-28T05:15:29.979Z,71.97
2018-09-28T05:17:58.825Z,71.56
2018-09-28T05:20:33.795Z,70.38
2018-09-28T05:23:02.741Z,69.95
2018-09-28T05:25:31.707Z,68.98
2018-09-28T05:28:06.717Z,68.92
2018-09-28T05:30:44.969Z,68.65
2018-09-28T05:33:06.424Z,68.73
2018-09-28T05:35:35.313Z,67.62
2018-09-28T05:38:10.065Z,68.08
2018-09-28T05:40:44.954Z,68.17
2018-09-28T05:43:19.822Z,67.92
2018-09-28T05:45:54.749Z,67.93
2018-09-28T05:48:29.563Z,68.26
2018-09-28T05:50:58.491Z,68.11
2018-09-28T05:53:27.405Z,67.62
2018-09-28T05:55:56.557Z,67.66
2018-09-28T05:58:30.948Z,67.78
2018-09-28T06:01:05.498Z,68.01
2018-09-28T06:03:34.437Z,67.42
2018-09-28T06:06:03.830Z,67.44
2018-09-28T06:08:32.688Z,67.46
2018-09-28T06:11:01.573Z,67.27
2018-09-28T06:13:30.429Z,67.84
2018-09-28T06:15:59.329Z,66.93
2018-09-28T06:18:28.406Z,67.21
2018-09-28T06:20:57.406Z,66.71
2018-09-28T06:23:26.371Z,66.41
2018-09-28T06:25:55.312Z,66.87
2018-09-28T06:28:24.182Z,66.72
2018-09-28T06:30:53.137Z,66.43
2018-09-28T06:33:21.978Z,66.65
2018-09-28T06:35:50.964Z,66.25
2018-09-28T06:38:19.809Z,65.94
2018-09-28T06:40:48.656Z,66.65
2018-09-28T06:43:17.626Z,66.24
2018-09-28T06:45:46.646Z,66.16
2018-09-28T06:48:15.609Z,65.59
2018-09-28T06:50:44.458Z,65.58
2018-09-28T06:53:13.395Z,64.56
2018-09-28T06:55:42.305Z,64.84
2018-09-28T06:58:11.238Z,65.36
2018-09-28T07:00:40.078Z,65.15
2018-09-28T07:03:08.938Z,65.35
2018-09-28T07:05:37.765Z,64.54
2018-09-28T07:08:06.859Z,65.01
2018-09-28T07:10:35.705Z,64.84
2018-09-28T07:13:04.623Z,64.83
2018-09-28T07:15:33.475Z,64.50
2018-09-28T07:18:02.420Z,64.02
2018-09-28T07:20:31.367Z,64.67
2018-09-28T07:23:00.592Z,63.53
2018-09-28T07:25:29.453Z,63.81
2018-09-28T07:27:58.365Z,64.86
2018-09-28T07:30:27.235Z,65.62
2018-09-28T07:32:56.298Z,64.82
2018-09-28T07:35:25.297Z,64.26
2018-09-28T07:37:54.172Z,61.43
2018-09-28T07:40:23.116Z,62.12
2018-09-28T07:42:52.119Z,61.42
2018-09-28T07:45:21.077Z,61.06
2018-09-28T07:47:49.962Z,60.88
2018-09-28T07:50:18.934Z,58.92
2018-09-28T07:52:47.793Z,58.76
2018-09-28T07:55:16.748Z,57.97
2018-09-28T07:57:45.660Z,57.72
2018-09-28T08:00:14.593Z,57.89
2018-09-28T08:02:43.435Z,56.35
2018-09-28T08:05:12.338Z,55.88
2018-09-28T08:07:41.171Z,56.97
2018-09-28T08:10:10.158Z,56.34
2018-09-28T08:12:39.125Z,55.06
2018-09-28T08:15:08.309Z,56.44
2018-09-28T08:17:37.435Z,55.87
2018-09-28T08:20:06.556Z,55.50
2018-09-28T08:22:35.750Z,55.53
2018-09-28T08:25:04.917Z,55.75
2018-09-28T08:27:33.751Z,55.68
2018-09-28T08:30:02.644Z,56.38
2018-09-28T08:32:31.634Z,56.29
2018-09-28T08:35:00.533Z,56.58
2018-09-28T08:37:29.403Z,57.02
2018-09-28T08:39:58.248Z,57.03
2018-09-28T08:42:27.149Z,57.54
2018-09-28T08:44:55.990Z,56.52
2018-09-28T08:47:24.942Z,56.56
2018-09-28T08:49:54.068Z,56.27
2018-09-28T08:52:22.970Z,55.59
2018-09-28T08:54:51.864Z,55.05
2018-09-28T08:57:20.768Z,55.00
2018-09-28T08:59:49.814Z,54.39
2018-09-28T09:02:18.837Z,55.16
2018-09-28T09:04:47.667Z,53.79
2018-09-28T09:07:16.570Z,54.29
2018-09-28T09:09:45.489Z,54.28
2018-09-28T09:12:14.507Z,53.49
2018-09-28T09:14:43.439Z,53.73
2018-09-28T09:17:12.355Z,53.76
2018-09-28T09:19:41.210Z,54.75
2018-09-28T09:22:10.090Z,54.61
2018-09-28T09:24:38.995Z,53.00
2018-09-28T09:27:08.065Z,52.80
2018-09-28T09:29:37.206Z,52.45
2018-09-28T09:32:06.122Z,51.79
2018-09-28T09:34:36.606Z,52.38
2018-09-28T09:37:05.962Z,51.91
2018-09-28T09:39:34.933Z,52.00
2018-09-28T09:42:03.823Z,51.87
2018-09-28T09:44:32.731Z,52.55
2018-09-28T09:47:01.634Z,52.45
2018-09-28T09:49:30.604Z,51.70
2018-09-28T09:51:59.655Z,52.35
2018-09-28T09:54:28.599Z,52.10
2018-09-28T09:56:57.478Z,51.71
2018-09-28T09:59:26.335Z,51.30
2018-09-28T10:02:00.938Z,51.00
2018-09-28T10:04:29.803Z,51.31
2018-09-28T10:06:58.651Z,51.13
2018-09-28T10:09:27.505Z,50.80
2018-09-28T10:11:57.106Z,50.62
2018-09-28T10:14:25.943Z,50.61
2018-09-28T10:16:54.775Z,50.71
2018-09-28T10:19:23.704Z,50.03
2018-09-28T10:21:52.492Z,50.08
2018-09-28T10:24:21.441Z,49.49
2018-09-28T10:26:50.266Z,50.38
2018-09-28T10:29:19.392Z,50.05
2018-09-28T10:31:48.280Z,50.44
2018-09-28T10:34:17.136Z,50.15
2018-09-28T10:36:46.020Z,48.33
2018-09-28T10:39:14.938Z,46.75
2018-09-28T10:41:43.800Z,45.77
2018-09-28T10:44:12.588Z,45.35
2018-09-28T10:46:41.683Z,45.95
2018-09-28T10:49:10.546Z,45.71
2018-09-28T10:51:39.478Z,44.97
2018-09-28T10:54:08.344Z,46.00
2018-09-28T10:56:37.208Z,44.11
2018-09-28T10:59:06.101Z,45.44
2018-09-28T11:01:34.987Z,44.71
2018-09-28T11:04:07.657Z,45.39
2018-09-28T11:06:36.504Z,47.68
2018-09-28T11:09:09.328Z,48.70
2018-09-28T11:11:38.384Z,49.52
2018-09-28T11:14:07.644Z,49.21
2018-09-28T11:16:36.488Z,48.80
2018-09-28T11:19:05.740Z,47.80
2018-09-28T11:21:34.558Z,46.90
2018-09-28T11:24:03.469Z,45.04
2018-09-28T11:26:32.356Z,44.43
2018-09-28T11:29:01.116Z,46.36
2018-09-28T11:31:29.934Z,49.17
2018-09-28T11:33:58.776Z,50.39
2018-09-28T11:36:27.636Z,51.58
2018-09-28T11:38:56.471Z,51.67
2018-09-28T11:41:25.306Z,51.51
2018-09-28T11:43:54.203Z,52.09
2018-09-28T11:46:22.998Z,51.41
2018-09-28T11:48:51.900Z,51.67
2018-09-28T11:51:20.739Z,52.43
2018-09-28T11:53:49.625Z,51.19
2018-09-28T11:56:18.419Z,51.60
2018-09-28T11:58:47.245Z,50.43
2018-09-28T12:01:16.091Z,49.33
2018-09-28T12:03:44.974Z,48.46
2018-09-28T12:06:13.780Z,46.18
2018-09-28T12:08:42.631Z,42.61
2018-09-28T12:11:11.428Z,42.59
2018-09-28T12:13:40.320Z,44.72
2018-09-28T12:16:09.200Z,50.14
2018-09-28T12:18:38.078Z,51.32
2018-09-28T12:21:06.999Z,51.50
2018-09-28T12:23:35.803Z,53.29
2018-09-28T12:26:04.656Z,50.54
2018-09-28T12:28:33.440Z,51.18
2018-09-28T12:31:02.267Z,53.56
2018-09-28T12:33:31.074Z,54.59
2018-09-28T12:36:00.318Z,55.23
2018-09-28T12:38:29.153Z,54.08
2018-09-28T12:40:57.979Z,54.24
2018-09-28T12:43:26.761Z,53.35
2018-09-28T12:45:55.637Z,52.49
2018-09-28T12:48:24.474Z,51.62
2018-09-28T12:50:54.198Z,52.76
2018-09-28T12:53:23.091Z,54.41
2018-09-28T12:55:51.948Z,54.53
2018-09-28T12:58:20.764Z,51.78
2018-09-28T13:00:50.009Z,51.44
2018-09-28T13:03:18.851Z,48.92
2018-09-28T13:05:47.729Z,47.53
2018-09-28T13:08:16.603Z,46.96
2018-09-28T13:10:46.487Z,46.22
2018-09-28T13:13:15.863Z,46.17
2018-09-28T13:15:44.781Z,46.34
2018-09-28T13:18:13.580Z,46.73
2018-09-28T13:20:42.537Z,47.08
2018-09-28T13:23:11.265Z,47.14
2018-09-28T13:25:40.217Z,43.34
2018-09-28T13:28:09.107Z,41.36
2018-09-28T13:30:37.912Z,39.32
2018-09-28T13:33:06.792Z,38.31
2018-09-28T13:35:35.589Z,39.50
2018-09-28T13:38:04.486Z,38.54
2018-09-28T13:40:33.343Z,38.59
2018-09-28T13:43:03.148Z,38.73
2018-09-28T13:45:32.043Z,38.21
2018-09-28T13:48:00.795Z,38.61
2018-09-28T13:50:29.648Z,37.99
2018-09-28T13:52:58.634Z,38.63
2018-09-28T13:55:27.453Z,40.22
2018-09-28T13:57:56.268Z,41.00
2018-09-28T14:00:25.126Z,42.17
2018-09-28T14:02:53.940Z,43.29
2018-09-28T14:05:22.812Z,42.08
2018-09-28T14:07:51.733Z,43.14
2018-09-28T14:10:20.569Z,43.24
2018-09-28T14:12:49.408Z,44.40
2018-09-28T14:15:18.225Z,44.79
2018-09-28T14:17:47.114Z,43.81
2018-09-28T14:20:15.947Z,43.78
2018-09-28T14:22:45.250Z,43.09
2018-09-28T14:25:14.064Z,43.67
2018-09-28T14:27:42.836Z,42.47
2018-09-28T14:30:12.925Z,42.16
2018-09-28T14:32:41.725Z,44.69
2018-09-28T14:35:10.564Z,46.25
2018-09-28T14:37:39.361Z,47.27
2018-09-28T14:40:09.869Z,47.39
2018-09-28T14:42:40.388Z,47.38
2018-09-28T14:45:09.248Z,47.40
2018-09-28T14:47:38.064Z,47.43
2018-09-28T14:50:07.100Z,46.57
2018-09-28T14:52:35.962Z,46.51
2018-09-28T14:55:05.072Z,43.10
2018-09-28T14:57:33.886Z,42.32
2018-09-28T15:00:04.358Z,41.00
2018-09-28T15:02:33.235Z,41.08
2018-09-28T15:05:02.116Z,41.31
2018-09-28T15:07:31.416Z,41.96
2018-09-28T15:10:01.483Z,43.15
2018-09-28T15:12:30.359Z,44.22
2018-09-28T15:14:59.380Z,44.48
2018-09-28T15:17:28.227Z,46.30
2018-09-28T15:19:57.220Z,47.44
2018-09-28T15:22:26.024Z,46.84
2018-09-28T15:24:54.821Z,45.46
2018-09-28T15:27:23.713Z,45.43
2018-09-28T15:29:52.484Z,45.88
2018-09-28T15:32:21.385Z,46.44
2018-09-28T15:34:50.180Z,46.65
2018-09-28T15:37:19.008Z,46.85
2018-09-28T15:39:47.824Z,46.60
2018-09-28T15:42:16.666Z,47.00
2018-09-28T15:44:45.516Z,46.48
2018-09-28T15:47:14.339Z,46.97
2018-09-28T15:49:43.115Z,47.54
2018-09-28T15:52:11.949Z,47.84
2018-09-28T15:54:40.843Z,48.14
2018-09-28T15:57:09.743Z,47.61
2018-09-28T15:59:38.579Z,47.52
2018-09-28T16:02:07.876Z,47.71
2018-09-28T16:04:36.717Z,47.92
2018-09-28T16:07:06.061Z,48.65
2018-09-28T16:09:35.094Z,50.62
2018-09-28T16:12:04.054Z,52.66
2018-09-28T16:14:32.786Z,52.72
2018-09-28T16:17:01.649Z,53.56
2018-09-28T16:19:30.503Z,54.18
2018-09-28T16:21:59.365Z,54.18
2018-09-28T16:24:28.214Z,54.78
2018-09-28T16:26:57.006Z,55.67
2018-09-28T16:29:26.308Z,55.91
2018-09-28T16:31:55.101Z,57.28
2018-09-28T16:34:24.260Z,57.27
2018-09-28T16:36:53.116Z,57.97
2018-09-28T16:39:22.394Z,58.58
2018-09-28T16:41:51.310Z,59.08
2018-09-28T16:44:20.146Z,59.07
2018-09-28T16:46:49.121Z,59.58
2018-09-28T16:49:17.990Z,60.07
2018-09-28T16:51:46.792Z,60.86
2018-09-28T16:54:15.723Z,60.81
2018-09-28T16:56:44.504Z,61.18
2018-09-28T16:59:13.396Z,61.51
2018-09-28T17:01:42.203Z,61.78
2018-09-28T17:04:11.035Z,62.55
2018-09-28T17:06:39.880Z,63.34
2018-09-28T17:09:12.562Z,63.69
2018-09-28T17:11:42.852Z,63.82
2018-09-28T17:14:11.710Z,63.72
2018-09-28T17:16:40.539Z,63.57
2018-09-28T17:19:09.375Z,64.05
2018-09-28T17:21:38.193Z,63.68
2018-09-28T17:24:07.448Z,63.05
2018-09-28T17:26:36.288Z,63.25
2018-09-28T17:29:05.220Z,63.33
2018-09-28T17:31:34.148Z,63.61
2018-09-28T17:34:02.966Z,63.20
2018-09-28T17:36:32.525Z,63.70
2018-09-28T17:39:01.319Z,63.23
2018-09-28T17:41:30.218Z,63.42
2018-09-28T17:43:59.070Z,63.55
2018-09-28T17:46:28.164Z,63.21
2018-09-28T17:48:57.012Z,63.07
2018-09-28T17:51:25.883Z,63.18
2018-09-28T17:53:54.741Z,63.83
2018-09-28T17:56:23.944Z,63.92
2018-09-28T17:58:52.784Z,63.66
2018-09-28T18:01:21.900Z,63.21
2018-09-28T18:03:50.702Z,63.88
2018-09-28T18:06:19.555Z,64.48
2018-09-28T18:08:48.377Z,64.37
2018-09-28T18:11:17.423Z,64.11
2018-09-28T18:13:46.633Z,64.86
2018-09-28T18:16:16.384Z,65.07
2018-09-28T18:18:45.256Z,65.59
2018-09-28T18:21:14.045Z,65.53
2018-09-28T18:23:42.901Z,66.85
2018-09-28T18:26:11.724Z,66.33
2018-09-28T18:28:40.609Z,66.79
2018-09-28T18:31:09.916Z,67.57
2018-09-28T18:33:38.750Z,67.45
2018-09-28T18:36:07.620Z,68.07
2018-09-28T18:38:36.672Z,68.30
2018-09-28T18:41:05.769Z,68.63
2018-09-28T18:43:34.593Z,68.69
2018-09-28T18:46:03.401Z,69.23
2018-09-28T18:48:32.370Z,69.59
2018-09-28T18:51:01.237Z,68.83
2018-09-28T18:53:30.082Z,68.71
2018-09-28T18:55:58.997Z,69.42
2018-09-28T18:58:27.760Z,69.39
2018-09-28T19:00:56.661Z,68.86
2018-09-28T19:03:25.916Z,69.30
2018-09-28T19:05:54.844Z,70.96
2018-09-28T19:08:23.640Z,69.70
2018-09-28T19:10:52.420Z,68.99
2018-09-28T19:13:21.253Z,69.92
2018-09-28T19:15:50.227Z,69.69
2018-09-28T19:18:19.016Z,70.65
2018-09-28T19:20:47.806Z,70.33
2018-09-28T19:23:16.625Z,72.05
2018-09-28T19:25:45.419Z,71.58
2018-09-28T19:28:14.529Z,71.32
2018-09-28T19:30:43.383Z,70.79
2018-09-28T19:33:12.195Z,71.28
2018-09-28T19:35:41.032Z,71.64
2018-09-28T19:38:09.832Z,71.33
2018-09-28T19:40:39.212Z,71.27
2018-09-28T19:43:07.987Z,71.45
2018-09-28T19:45:37.052Z,71.73
2018-09-28T19:48:06.280Z,71.33
2018-09-28T19:50:35.111Z,71.41
2018-09-28T19:53:04.013Z,72.58
2018-09-28T19:55:33.040Z,72.85
2018-09-28T19:58:01.885Z,72.30
2018-09-28T20:00:30.672Z,72.53
2018-09-28T20:02:59.512Z,73.25
2018-09-28T20:05:28.367Z,72.28
2018-09-28T20:07:57.291Z,72.53
2018-09-28T20:10:26.084Z,72.17
2018-09-28T20:12:54.902Z,73.43
2018-09-28T20:15:23.693Z,74.06
2018-09-28T20:17:52.616Z,73.26
2018-09-28T20:20:21.743Z,72.94
2018-09-28T20:22:50.907Z,73.90
2018-09-28T20:25:19.841Z,74.49
2018-09-28T20:27:48.667Z,74.68
2018-09-28T20:30:17.535Z,74.44
2018-09-28T20:32:46.408Z,74.13
2018-09-28T20:35:15.219Z,74.04
2018-09-28T20:37:44.159Z,73.50
2018-09-28T20:40:12.965Z,73.45
2018-09-28T20:42:41.830Z,74.24
2018-09-28T20:45:16.754Z,75.27
2018-09-28T20:47:45.555Z,75.47
2018-09-28T20:50:14.435Z,75.21
2018-09-28T20:52:43.296Z,74.81
2018-09-28T20:55:12.219Z,75.49
2018-09-28T20:57:41.025Z,75.78
2018-09-28T21:00:10.210Z,76.24
2018-09-28T21:02:39.030Z,75.99
2018-09-28T21:05:07.970Z,76.69
2018-09-28T21:07:36.815Z,76.87
2018-09-28T21:10:05.715Z,76.83
2018-09-28T21:12:34.517Z,76.49
2018-09-28T21:15:04.927Z,76.96
2018-09-28T21:17:35.511Z,77.35
2018-09-28T21:20:04.464Z,78.33
2018-09-28T21:22:33.276Z,78.21
2018-09-28T21:25:02.151Z,77.66
2018-09-28T21:27:31.209Z,77.59
2018-09-28T21:30:00.090Z,77.81
2018-09-28T21:32:29.138Z,77.98
2018-09-28T21:34:58.016Z,78.31
2018-09-28T21:37:26.783Z,77.69
2018-09-28T21:39:55.586Z,78.59
2018-09-28T21:42:24.472Z,78.24
2018-09-28T21:44:53.281Z,77.30
2018-09-28T21:47:22.110Z,78.47
2018-09-28T21:49:51.252Z,78.30
2018-09-28T21:52:20.080Z,79.65
2018-09-28T21:54:48.940Z,79.88
2018-09-28T21:57:17.785Z,79.74
2018-09-28T21:59:46.550Z,79.84
2018-09-28T22:02:15.411Z,79.55
2018-09-28T22:04:44.255Z,78.65
2018-09-28T22:07:13.128Z,78.72
2018-09-28T22:09:41.921Z,79.45
2018-09-28T22:12:10.887Z,79.88
2018-09-28T22:14:39.704Z,79.25
2018-09-28T22:17:08.555Z,79.00
2018-09-28T22:19:37.410Z,79.18
2018-09-28T22:22:06.315Z,78.17
2018-09-28T22:24:35.078Z,78.29
2018-09-28T22:27:03.938Z,78.34
2018-09-28T22:29:32.706Z,78.08
2018-09-28T22:32:01.604Z,77.89
2018-09-28T22:34:30.420Z,78.41
2018-09-28T22:36:59.205Z,78.71
2018-09-28T22:39:29.282Z,78.26
2018-09-28T22:41:58.324Z,79.26
2018-09-28T22:44:27.234Z,79.31
2018-09-28T22:46:56.034Z,79.56
2018-09-28T22:49:24.876Z,79.66
2018-09-28T22:51:53.664Z,80.90
2018-09-28T22:54:22.503Z,80.89
2018-09-28T22:56:51.394Z,80.04
2018-09-28T22:59:20.432Z,81.11
2018-09-28T23:01:49.264Z,81.49
2018-09-28T23:04:18.114Z,81.24
2018-09-28T23:06:47.157Z,80.62
2018-09-28T23:09:16.048Z,80.26
2018-09-28T23:11:44.831Z,80.81
2018-09-28T23:14:13.685Z,80.24
2018-09-28T23:16:42.491Z,79.47
2018-09-28T23:19:11.328Z,79.19
2018-09-28T23:21:40.520Z,79.21
2018-09-28T23:24:09.339Z,81.26
2018-09-28T23:26:38.135Z,82.33
2018-09-28T23:29:06.953Z,82.18
2018-09-28T23:31:35.739Z,81.87
2018-09-28T23:34:04.664Z,80.71
2018-09-28T23:36:33.471Z,80.75
2018-09-28T23:39:02.431Z,81.96
2018-09-28T23:41:31.289Z,81.81
2018-09-28T23:44:00.104Z,81.30
2018-09-28T23:46:29.011Z,80.54
2018-09-28T23:48:57.819Z,81.42
2018-09-28T23:51:26.651Z,82.34
2018-09-28T23:53:55.868Z,81.92
2018-09-28T23:56:24.739Z,80.66
2018-09-28T23:58:53.719Z,81.33
